Berkeley, CA

5:24 PM PST on January 18, 2018 (GMT -0800)
Berkeley Hills | | Change Station

Elev 446 ft 37.88 °N, 122.26 °W | Updated 30 seconds ago

Light Rain
Light Rain Mist
52.3 °F
Feels Like 52.3 °F
N
1.0
Wind Variable Wind from WSW

Today
High -- | Low -- °F
--% Chance of Precip.
Yesterday
High -- | Low -- °F
Precip. -- in
Pressure 30.03 in
Visibility 5.0 miles
Clouds Scattered Clouds 800 ft
Mostly Cloudy 1800 ft
Overcast 3500 ft
Dew Point 51 °F
Humidity 96%
Rainfall 0.13 in
Snow Depth Not available.
7:22 AM 5:17 PM
Waxing Crescent, 3% visible
SPECI KOAK 190111Z 26008KT 5SM -RA BR SCT008 BKN018 OVC035 12/11 A3003 RMK AO2 P0000 T01220111
Pressure 30.03 in
Visibility 5.0 miles
Clouds Scattered Clouds 800 ft
Mostly Cloudy 1800 ft
Overcast 3500 ft
Dew Point 51 °F
Humidity 96%
Rainfall 0.13 in
Snow Depth Not available.
7:22 AM 5:17 PM
Waxing Crescent, 3% visible
SPECI KOAK 190111Z 26008KT 5SM -RA BR SCT008 BKN018 OVC035 12/11 A3003 RMK AO2 P0000 T01220111

Get Severe Weather Alerts

Thanks for signing up!

Be on the lookout for a verification email in your inbox.

You'll start receiving the daily forecast at 6 AM.

×

10-Day Weather Forecast

Almanac

Astronomy

Jan. 18, 2018 Rise Set
Actual Time
Civil Twilight
Nautical Twilight
Astronomical Twilight
Moon
Length of Visible Light
Length of Day
Tomorrow will be .
, % of the Moon is Illuminated

Today's Extremes

State Highs State Lows

Community

WunderPhotos

Category 6

Welcome to Category 6. This is the collective home for Weather Underground's featured writeups by Dr. Jeff Masters (right), Bob Henson (left), Chris Burt, and other regular contributors.

Nearby

Air Quality

  Air Quality AQ Index Pollutant
Not available.

Snow Depth

Station Depth Elevation

Earthquake Activity

City Distance Mag. Time & Date
Minimum magnitude displayed is 2.5.

Coastal Water Temperatures

Place Temperature

Stations

Nearby Weather Stations

Station Location Temp. Windchill Dew Point Humidity Wind Precip. Elev Updated Type
                   

Watches & Warnings

There are currently no watches in effect.